createdAt,value
2019-02-28T00:00:02.947Z,8.7
2019-02-28T00:01:02.956Z,8.6
2019-02-28T00:02:02.992Z,8.6
2019-02-28T00:03:03.042Z,8.5
2019-02-28T00:04:03.070Z,8.4
2019-02-28T00:05:05.739Z,8.3
2019-02-28T00:06:03.155Z,8.3
2019-02-28T00:07:03.089Z,8.2
2019-02-28T00:08:03.112Z,8.2
2019-02-28T00:09:03.129Z,8.1
2019-02-28T00:10:03.178Z,8.1
2019-02-28T00:11:04.988Z,8
2019-02-28T00:12:03.194Z,7.9
2019-02-28T00:13:03.203Z,7.9
2019-02-28T00:14:03.246Z,7.8
2019-02-28T00:15:03.263Z,7.8
2019-02-28T00:16:04.003Z,7.8
2019-02-28T00:17:03.285Z,7.8
2019-02-28T00:18:03.726Z,7.8
2019-02-28T00:19:03.308Z,7.9
2019-02-28T00:20:03.338Z,8.1
2019-02-28T00:21:06.317Z,8.2
2019-02-28T00:22:03.365Z,8.4
2019-02-28T00:23:03.366Z,8.5
2019-02-28T00:24:03.403Z,8.7
2019-02-28T00:25:04.183Z,8.9
2019-02-28T00:26:03.439Z,9
2019-02-28T00:27:03.470Z,9.2
2019-02-28T00:28:03.487Z,9.2
2019-02-28T00:29:03.463Z,9.3
2019-02-28T00:30:05.942Z,9.4
2019-02-28T00:31:03.479Z,9.4
2019-02-28T00:32:03.463Z,9.5
2019-02-28T00:33:03.463Z,9.5
2019-02-28T00:34:05.322Z,9.7
2019-02-28T00:35:03.508Z,9.7
2019-02-28T00:36:03.504Z,9.8
2019-02-28T00:37:03.534Z,9.9
2019-02-28T00:38:03.486Z,9.9
2019-02-28T00:39:04.143Z,10
2019-02-28T00:40:06.113Z,10
2019-02-28T00:41:03.519Z,10.1
2019-02-28T00:42:03.549Z,10.1
2019-02-28T00:43:03.544Z,10.2
2019-02-28T00:44:04.442Z,10.2
2019-02-28T00:45:03.737Z,10.2
2019-02-28T00:46:03.624Z,10.3
2019-02-28T00:47:03.750Z,10.3
2019-02-28T00:48:04.244Z,10.3
2019-02-28T00:49:03.741Z,10.3
2019-02-28T00:50:03.807Z,10.3
2019-02-28T00:51:03.800Z,10.3
2019-02-28T00:52:03.845Z,10.3
2019-02-28T00:53:06.350Z,10.3
2019-02-28T00:54:03.895Z,10.3
2019-02-28T00:55:03.958Z,10.3
2019-02-28T00:56:03.966Z,10.3
2019-02-28T00:57:04.026Z,10.3
2019-02-28T00:58:04.041Z,10.3
2019-02-28T00:59:04.086Z,10.3
2019-02-28T01:00:05.373Z,10.3
2019-02-28T01:01:04.173Z,10.3
2019-02-28T01:02:04.235Z,10.3
2019-02-28T01:03:04.237Z,10.4
2019-02-28T01:04:04.278Z,10.4
2019-02-28T01:05:04.793Z,10.4
2019-02-28T01:06:07.144Z,10.4
2019-02-28T01:07:04.390Z,10.4
2019-02-28T01:08:04.426Z,10.4
2019-02-28T01:09:36.352Z,10.4
2019-02-28T01:10:05.191Z,10.4
2019-02-28T01:11:04.541Z,10.4
2019-02-28T01:12:04.580Z,10.4
2019-02-28T01:13:04.584Z,10.4
2019-02-28T01:14:04.625Z,10.4
2019-02-28T01:15:07.118Z,10.4
2019-02-28T01:16:04.658Z,10.4
2019-02-28T01:17:04.651Z,10.5
2019-02-28T01:18:04.714Z,10.5
2019-02-28T01:19:08.442Z,10.5
2019-02-28T01:20:04.813Z,10.4
2019-02-28T01:21:04.818Z,10.4
2019-02-28T01:22:04.888Z,10.4
2019-02-28T01:23:04.889Z,10.4
2019-02-28T01:24:04.884Z,10.3
2019-02-28T01:25:06.457Z,10.3
2019-02-28T01:26:04.957Z,10.3
2019-02-28T01:27:04.961Z,10.4
2019-02-28T01:28:04.979Z,10.4
2019-02-28T01:29:04.985Z,10.4
2019-02-28T01:30:06.587Z,10.4
2019-02-28T01:31:05.012Z,10.5
2019-02-28T01:32:05.048Z,10.5
2019-02-28T01:33:05.065Z,10.6
2019-02-28T01:34:05.228Z,10.6
2019-02-28T01:35:06.719Z,10.7
2019-02-28T01:36:05.166Z,10.7
2019-02-28T01:37:05.161Z,10.8
2019-02-28T01:38:05.239Z,10.8
2019-02-28T01:39:05.232Z,10.8
2019-02-28T01:40:05.385Z,10.8
2019-02-28T01:41:05.249Z,10.9
2019-02-28T01:42:05.252Z,10.9
2019-02-28T01:43:05.314Z,10.9
2019-02-28T01:44:05.297Z,10.9
2019-02-28T01:45:06.975Z,10.9
2019-02-28T01:46:05.353Z,10.9
2019-02-28T01:47:05.346Z,11
2019-02-28T01:48:05.370Z,11
2019-02-28T01:49:05.386Z,11
2019-02-28T01:50:05.436Z,11
2019-02-28T01:51:05.410Z,11.1
2019-02-28T01:52:07.137Z,11.1
2019-02-28T01:53:05.445Z,11.1
2019-02-28T01:54:05.459Z,11.1
2019-02-28T01:55:05.481Z,11.2
2019-02-28T01:56:05.521Z,11.1
2019-02-28T01:57:05.513Z,11.1
2019-02-28T01:58:05.512Z,11.1
2019-02-28T01:59:05.532Z,11
2019-02-28T02:00:05.623Z,11
2019-02-28T02:01:05.576Z,11
2019-02-28T02:02:06.616Z,10.9
2019-02-28T02:03:05.568Z,10.9
2019-02-28T02:04:05.613Z,10.9
2019-02-28T02:05:05.589Z,10.9
2019-02-28T02:06:05.605Z,10.9
2019-02-28T02:07:05.615Z,10.8
2019-02-28T02:08:07.219Z,10.8
2019-02-28T02:09:08.033Z,10.8
2019-02-28T02:10:05.675Z,10.8
2019-02-28T02:11:05.680Z,10.8
2019-02-28T02:12:05.660Z,10.8
2019-02-28T02:13:05.648Z,10.8
2019-02-28T02:14:07.403Z,10.8
2019-02-28T02:15:05.672Z,10.8
2019-02-28T02:16:06.726Z,10.8
2019-02-28T02:17:05.707Z,10.9
2019-02-28T02:18:06.279Z,11
2019-02-28T02:19:05.699Z,11
2019-02-28T02:20:05.697Z,11.1
2019-02-28T02:21:05.746Z,11.1
2019-02-28T02:22:08.993Z,11.1
2019-02-28T02:23:05.716Z,11.1
2019-02-28T02:24:05.723Z,11.1
2019-02-28T02:25:05.715Z,11.1
2019-02-28T02:26:08.338Z,11
2019-02-28T02:27:05.740Z,11
2019-02-28T02:28:05.762Z,11
2019-02-28T02:29:05.758Z,11
2019-02-28T02:30:13.257Z,10.9
2019-02-28T02:31:08.086Z,10.9
2019-02-28T02:32:05.914Z,10.9
2019-02-28T02:33:05.814Z,10.9
2019-02-28T02:34:05.828Z,11
2019-02-28T02:35:07.781Z,11
2019-02-28T02:36:05.887Z,11
2019-02-28T02:37:05.852Z,11
2019-02-28T02:38:05.884Z,11
2019-02-28T02:39:05.884Z,11
2019-02-28T02:40:05.900Z,11
2019-02-28T02:41:05.908Z,11
2019-02-28T02:42:09.707Z,11
2019-02-28T02:43:05.942Z,11.1
2019-02-28T02:44:05.938Z,11.1
2019-02-28T02:45:06.655Z,11.1
2019-02-28T02:46:05.933Z,11
2019-02-28T02:47:05.965Z,11
2019-02-28T02:48:06.811Z,11.1
2019-02-28T02:49:05.985Z,11.1
2019-02-28T02:50:05.966Z,11.1
2019-02-28T02:51:10.531Z,11.1
2019-02-28T02:52:06.001Z,11.1
2019-02-28T02:53:06.574Z,11.2
2019-02-28T02:54:06.009Z,11.2
2019-02-28T02:55:06.032Z,11.2
2019-02-28T02:56:06.061Z,11.2
2019-02-28T02:57:06.044Z,11.2
2019-02-28T02:58:06.029Z,11.2
2019-02-28T02:59:06.031Z,11.2
2019-02-28T03:00:06.032Z,11.2
2019-02-28T03:01:06.046Z,11.2
2019-02-28T03:02:06.030Z,11.2
2019-02-28T03:03:07.603Z,11.2
2019-02-28T03:04:06.077Z,11.1
2019-02-28T03:05:06.061Z,11.1
2019-02-28T03:06:08.587Z,11
2019-02-28T03:07:06.114Z,11
2019-02-28T03:08:06.149Z,10.9
2019-02-28T03:10:06.133Z,10.8
2019-02-28T03:11:06.176Z,10.7
2019-02-28T03:12:06.178Z,10.7
2019-02-28T03:13:06.573Z,10.6
2019-02-28T03:14:06.196Z,10.6
2019-02-28T03:15:06.208Z,10.6
2019-02-28T03:16:06.202Z,10.5
2019-02-28T03:17:11.388Z,10.4
2019-02-28T03:18:06.243Z,10.4
2019-02-28T03:19:06.276Z,10.3
2019-02-28T03:20:07.658Z,10.2
2019-02-28T03:21:06.291Z,10.2
2019-02-28T03:22:06.330Z,10.1
2019-02-28T03:23:06.312Z,10
2019-02-28T03:24:06.294Z,9.9
2019-02-28T03:25:06.307Z,9.8
2019-02-28T03:26:07.188Z,9.8
2019-02-28T03:27:06.306Z,9.6
2019-02-28T03:28:06.327Z,9.5
2019-02-28T03:29:07.818Z,9.4
2019-02-28T03:30:06.322Z,9.3
2019-02-28T03:31:14.013Z,9.2
2019-02-28T03:32:06.374Z,9.1
2019-02-28T03:33:06.393Z,9
2019-02-28T03:34:12.687Z,8.9
2019-02-28T03:35:06.383Z,8.9
2019-02-28T03:36:06.340Z,8.8
2019-02-28T03:37:06.429Z,8.7
2019-02-28T03:38:10.166Z,8.6
2019-02-28T03:39:06.471Z,8.5
2019-02-28T03:40:06.464Z,8.4
2019-02-28T03:41:06.504Z,8.4
2019-02-28T03:42:06.571Z,8.3
2019-02-28T03:43:06.984Z,8.2
2019-02-28T03:44:06.685Z,8.2
2019-02-28T03:45:06.694Z,8.1
2019-02-28T03:46:10.116Z,8.1
2019-02-28T03:47:06.732Z,8
2019-02-28T03:48:06.819Z,8
2019-02-28T03:49:10.839Z,8
2019-02-28T03:50:06.840Z,8
2019-02-28T03:51:06.827Z,8
2019-02-28T03:52:06.984Z,8
2019-02-28T03:53:06.927Z,8
2019-02-28T03:54:06.931Z,7.9
2019-02-28T03:55:06.962Z,8
2019-02-28T03:56:06.998Z,7.9
2019-02-28T03:57:07.010Z,7.9
2019-02-28T03:58:07.015Z,7.9
2019-02-28T03:59:07.053Z,7.8
2019-02-28T04:00:07.063Z,7.8
2019-02-28T04:01:09.288Z,7.8
2019-02-28T04:02:07.138Z,7.7
2019-02-28T04:03:07.138Z,7.7
2019-02-28T04:04:12.098Z,7.7
2019-02-28T04:05:07.213Z,7.6
2019-02-28T04:06:07.215Z,7.6
2019-02-28T04:07:07.308Z,7.6
2019-02-28T04:08:07.273Z,7.6
2019-02-28T04:09:08.975Z,7.5
2019-02-28T04:10:07.325Z,7.5
2019-02-28T04:11:07.369Z,7.5
2019-02-28T04:12:08.966Z,7.4
2019-02-28T04:13:07.396Z,7.3
2019-02-28T04:14:07.417Z,7.3
2019-02-28T04:15:10.017Z,7.3
2019-02-28T04:16:09.345Z,7.2
2019-02-28T04:17:07.488Z,7.2
2019-02-28T04:18:08.537Z,7.2
2019-02-28T04:19:07.528Z,7.1
2019-02-28T04:20:07.572Z,7.1
2019-02-28T04:21:10.125Z,7.1
2019-02-28T04:22:07.653Z,7.1
2019-02-28T04:23:07.587Z,7
2019-02-28T04:24:12.361Z,7
2019-02-28T04:25:07.656Z,6.9
2019-02-28T04:26:07.638Z,6.9
2019-02-28T04:27:07.898Z,6.9
2019-02-28T04:28:07.686Z,6.9
2019-02-28T04:29:07.712Z,6.8
2019-02-28T04:30:08.349Z,6.8
2019-02-28T04:31:07.728Z,6.8
2019-02-28T04:32:07.728Z,6.8
2019-02-28T04:33:07.736Z,6.8
2019-02-28T04:34:12.871Z,6.8
2019-02-28T04:35:07.745Z,6.7
2019-02-28T04:36:07.748Z,6.7
2019-02-28T04:37:09.411Z,6.6
2019-02-28T04:38:07.790Z,6.6
2019-02-28T04:39:07.829Z,6.6
2019-02-28T04:40:07.796Z,6.6
2019-02-28T04:41:07.806Z,6.5
2019-02-28T04:41:54.478Z,6.5
2019-02-28T04:42:54.523Z,6.5
2019-02-28T04:43:36.107Z,6.5
2019-02-28T04:44:02.041Z,6.5
2019-02-28T04:45:02.043Z,6.5
2019-02-28T04:45:18.685Z,6.5
2019-02-28T04:45:42.245Z,6.5
2019-02-28T04:46:42.260Z,6.5
2019-02-28T04:47:42.291Z,6.5
2019-02-28T04:48:42.361Z,6.5
2019-02-28T04:49:42.393Z,6.5
2019-02-28T04:50:42.406Z,6.5
2019-02-28T04:51:42.456Z,6.6
2019-02-28T04:52:47.051Z,6.6
2019-02-28T04:53:42.529Z,6.6
2019-02-28T04:54:42.575Z,6.6
2019-02-28T04:55:42.616Z,6.6
2019-02-28T04:56:45.468Z,6.7
2019-02-28T04:57:42.698Z,6.7
2019-02-28T04:58:42.707Z,6.7
2019-02-28T04:59:42.764Z,6.8
2019-02-28T05:00:42.772Z,7
2019-02-28T05:01:45.176Z,7.2
2019-02-28T05:02:42.830Z,7.4
2019-02-28T05:03:42.874Z,7.6
2019-02-28T05:04:42.869Z,7.7
2019-02-28T05:05:46.350Z,7.8
2019-02-28T05:06:42.968Z,7.8
2019-02-28T05:07:42.973Z,7.9
2019-02-28T05:08:42.993Z,8
2019-02-28T05:09:45.198Z,8
2019-02-28T05:10:43.042Z,8.1
2019-02-28T05:11:43.131Z,8.2
2019-02-28T05:12:43.133Z,8.2
2019-02-28T05:13:48.165Z,8.3
2019-02-28T05:14:43.153Z,8.3
2019-02-28T05:15:43.175Z,8.4
2019-02-28T05:16:46.851Z,8.5
2019-02-28T05:17:43.255Z,8.5
2019-02-28T05:18:43.272Z,8.5
2019-02-28T05:19:43.288Z,8.5
2019-02-28T05:20:46.080Z,8.5
2019-02-28T05:21:43.350Z,8.4
2019-02-28T05:22:43.365Z,8.4
2019-02-28T05:23:43.358Z,8.4
2019-02-28T05:24:43.707Z,8.4
2019-02-28T05:25:43.422Z,8.4
2019-02-28T05:26:43.443Z,8.4
2019-02-28T05:27:43.478Z,8.4
2019-02-28T05:28:43.485Z,8.4
2019-02-28T05:29:44.584Z,8.4
2019-02-28T05:30:43.536Z,8.4
2019-02-28T05:31:43.528Z,8.4
2019-02-28T05:32:43.570Z,8.5
2019-02-28T05:33:43.614Z,8.5
2019-02-28T05:34:43.625Z,8.6
2019-02-28T05:35:43.647Z,8.6
2019-02-28T05:36:43.648Z,8.6
2019-02-28T05:37:47.289Z,8.6
2019-02-28T05:38:43.713Z,8.7
2019-02-28T05:39:43.798Z,8.7
2019-02-28T05:40:43.706Z,8.7
2019-02-28T05:41:48.911Z,8.8
2019-02-28T05:42:43.762Z,8.9
2019-02-28T05:43:43.791Z,8.9
2019-02-28T05:44:43.778Z,9
2019-02-28T05:45:48.509Z,9
2019-02-28T05:46:43.775Z,9
2019-02-28T05:47:46.527Z,9.1
2019-02-28T05:48:43.809Z,9.2
2019-02-28T05:49:43.831Z,9.3
2019-02-28T05:50:43.837Z,9.4
2019-02-28T05:51:43.831Z,9.4
2019-02-28T05:52:43.864Z,9.5
2019-02-28T05:53:46.064Z,9.5
2019-02-28T05:54:43.864Z,9.6
2019-02-28T05:55:43.912Z,9.6
2019-02-28T05:56:43.844Z,9.7
2019-02-28T05:57:44.839Z,9.7
2019-02-28T05:58:43.872Z,9.8
2019-02-28T05:59:43.900Z,9.8
2019-02-28T06:00:43.917Z,9.9
2019-02-28T06:01:46.889Z,9.9
2019-02-28T06:02:43.903Z,9.9
2019-02-28T06:03:43.914Z,10
2019-02-28T06:04:43.897Z,10
2019-02-28T06:05:46.311Z,10.1
2019-02-28T06:06:44.035Z,10.1
2019-02-28T06:07:43.928Z,10.2
2019-02-28T06:08:43.905Z,10.2
2019-02-28T06:09:45.512Z,10.3
2019-02-28T06:10:43.986Z,10.3
2019-02-28T06:11:44.030Z,10.3
2019-02-28T06:12:44.847Z,10.4
2019-02-28T06:13:44.069Z,10.4
2019-02-28T06:14:44.093Z,10.4
2019-02-28T06:15:44.159Z,10.5
2019-02-28T06:16:46.702Z,10.5
2019-02-28T06:17:44.239Z,10.6
2019-02-28T06:18:44.277Z,10.6
2019-02-28T06:19:44.354Z,10.6
2019-02-28T06:20:44.640Z,10.6
2019-02-28T06:21:44.359Z,10.7
2019-02-28T06:22:44.405Z,10.7
2019-02-28T06:23:44.475Z,10.8
2019-02-28T06:24:44.998Z,10.8
2019-02-28T06:25:44.523Z,10.8
2019-02-28T06:26:44.591Z,10.8
2019-02-28T06:27:48.887Z,10.8
2019-02-28T06:28:44.816Z,10.8
2019-02-28T06:29:44.637Z,10.8
2019-02-28T06:30:44.745Z,10.8
2019-02-28T06:31:45.383Z,10.8
2019-02-28T06:32:44.718Z,10.8
2019-02-28T06:33:44.755Z,10.8
2019-02-28T06:34:44.821Z,10.8
2019-02-28T06:35:44.802Z,10.8
2019-02-28T06:36:44.866Z,10.8
2019-02-28T06:37:44.878Z,10.8
2019-02-28T06:38:44.938Z,10.8
2019-02-28T06:39:45.076Z,10.9
2019-02-28T06:40:45.018Z,10.9
2019-02-28T06:41:45.012Z,10.9
2019-02-28T06:42:46.629Z,10.9
2019-02-28T06:43:45.101Z,10.9
2019-02-28T06:44:45.115Z,10.8
2019-02-28T06:45:45.178Z,10.8
2019-02-28T06:46:45.161Z,10.9
2019-02-28T06:47:47.887Z,10.9
2019-02-28T06:48:45.232Z,10.9
2019-02-28T06:49:45.315Z,10.9
2019-02-28T06:50:45.578Z,10.9
2019-02-28T06:51:45.285Z,11
2019-02-28T06:52:45.345Z,11
2019-02-28T06:53:45.328Z,11
2019-02-28T06:54:45.381Z,11
2019-02-28T06:55:46.401Z,11
2019-02-28T06:56:45.421Z,11
2019-02-28T06:57:45.420Z,11
2019-02-28T06:58:45.441Z,11.1
2019-02-28T06:59:45.494Z,11.1
2019-02-28T07:00:48.424Z,11.1
2019-02-28T07:01:45.516Z,11.2
2019-02-28T07:02:45.558Z,11.2
2019-02-28T07:03:53.215Z,11.2
2019-02-28T07:04:49.430Z,11.2
2019-02-28T07:05:45.791Z,11.2
2019-02-28T07:06:45.696Z,11.3
2019-02-28T07:07:48.943Z,11.3
2019-02-28T07:08:45.840Z,11.3
2019-02-28T07:09:45.690Z,11.4
2019-02-28T07:10:48.362Z,11.4
2019-02-28T07:11:45.701Z,11.4
2019-02-28T07:12:45.737Z,11.5
2019-02-28T07:13:45.738Z,11.5
2019-02-28T07:14:49.197Z,11.5
2019-02-28T07:15:45.762Z,11.6
2019-02-28T07:16:45.777Z,11.6
2019-02-28T07:17:47.356Z,11.6
2019-02-28T07:18:45.809Z,11.7
2019-02-28T07:19:46.072Z,11.7
2019-02-28T07:20:47.179Z,11.8
2019-02-28T07:22:01.379Z,11.8
2019-02-28T07:22:45.897Z,11.9
2019-02-28T07:23:45.874Z,11.9
2019-02-28T07:24:45.859Z,12
2019-02-28T07:25:47.324Z,12
2019-02-28T07:26:45.884Z,12
2019-02-28T07:27:45.914Z,12.1
2019-02-28T07:28:45.905Z,12.1
2019-02-28T07:29:48.582Z,12.1
2019-02-28T07:30:45.899Z,12.2
2019-02-28T07:31:46.060Z,12.2
2019-02-28T07:32:45.958Z,12.3
2019-02-28T07:33:45.951Z,12.3
2019-02-28T07:34:45.930Z,12.4
2019-02-28T07:35:45.937Z,12.4
2019-02-28T07:36:45.968Z,12.5
2019-02-28T07:37:45.951Z,12.5
2019-02-28T07:38:45.938Z,12.6
2019-02-28T07:39:45.960Z,12.7
2019-02-28T07:40:49.384Z,12.7
2019-02-28T07:41:48.171Z,12.7
2019-02-28T07:42:45.987Z,12.8
2019-02-28T07:43:46.894Z,12.9
2019-02-28T07:44:46.013Z,12.9
2019-02-28T07:45:46.092Z,13
2019-02-28T07:46:46.068Z,13
2019-02-28T07:47:51.388Z,13
2019-02-28T07:48:46.152Z,13.1
2019-02-28T07:49:46.173Z,13.1
2019-02-28T07:50:46.632Z,13.1
2019-02-28T07:51:46.216Z,13.1
2019-02-28T07:52:46.229Z,13.2
2019-02-28T07:53:46.238Z,13.2
2019-02-28T07:54:47.379Z,13.2
2019-02-28T07:55:46.263Z,13.2
2019-02-28T07:56:46.274Z,13.3
2019-02-28T07:57:50.921Z,13.4
2019-02-28T07:58:46.353Z,13.4
2019-02-28T07:59:46.357Z,13.5
2019-02-28T08:00:48.399Z,13.5
2019-02-28T08:01:46.442Z,13.5
2019-02-28T08:02:46.427Z,13.5
2019-02-28T08:03:46.465Z,13.5
2019-02-28T08:04:46.616Z,13.5
2019-02-28T08:05:46.500Z,13.5
2019-02-28T08:06:46.493Z,13.6
2019-02-28T08:07:51.774Z,13.6
2019-02-28T08:08:46.645Z,13.6
2019-02-28T08:09:46.561Z,13.6
2019-02-28T08:10:47.907Z,13.6
2019-02-28T08:11:46.565Z,13.7
2019-02-28T08:12:46.579Z,13.7
2019-02-28T08:13:46.604Z,13.7
2019-02-28T08:14:47.005Z,13.7
2019-02-28T08:15:46.727Z,13.7
2019-02-28T08:16:46.646Z,13.7
2019-02-28T08:17:46.647Z,13.7
2019-02-28T08:18:46.696Z,13.7
2019-02-28T08:19:46.724Z,13.8
2019-02-28T08:20:46.757Z,13.8
2019-02-28T08:21:49.459Z,13.9
2019-02-28T08:22:46.766Z,13.9
2019-02-28T08:23:46.814Z,13.9
2019-02-28T08:24:46.802Z,14
2019-02-28T08:25:46.840Z,14
2019-02-28T08:26:46.832Z,14.1
2019-02-28T08:27:46.906Z,14.1
2019-02-28T08:28:46.884Z,14.1
2019-02-28T08:29:46.989Z,14.2
2019-02-28T08:30:47.412Z,14.2
2019-02-28T08:31:46.974Z,14.2
2019-02-28T08:32:47.221Z,14.2
2019-02-28T08:33:48.031Z,14.3
2019-02-28T08:34:46.998Z,14.3
2019-02-28T08:35:46.995Z,14.3
2019-02-28T08:36:47.557Z,14.3
2019-02-28T08:37:47.023Z,14.3
2019-02-28T08:38:47.190Z,14.3
2019-02-28T08:39:47.055Z,14.4
2019-02-28T08:40:50.261Z,14.4
2019-02-28T08:41:47.127Z,14.4
2019-02-28T08:42:47.164Z,14.4
2019-02-28T08:43:47.743Z,14.5
2019-02-28T08:44:47.120Z,14.5
2019-02-28T08:45:47.130Z,14.5
2019-02-28T08:46:47.293Z,14.6
2019-02-28T08:47:47.144Z,14.7
2019-02-28T08:48:47.171Z,14.7
2019-02-28T08:49:47.152Z,14.8
2019-02-28T08:50:47.153Z,14.8
2019-02-28T08:51:47.228Z,14.8
2019-02-28T08:52:48.343Z,14.9
2019-02-28T08:53:50.679Z,15
2019-02-28T08:54:47.177Z,15
2019-02-28T08:55:47.183Z,15.1
2019-02-28T08:56:49.518Z,15.1
2019-02-28T08:57:54.339Z,15.1
2019-02-28T08:58:47.233Z,15.1
2019-02-28T08:59:47.244Z,15.1
2019-02-28T09:00:47.246Z,15.1
2019-02-28T09:01:47.203Z,15
2019-02-28T09:02:52.113Z,15
2019-02-28T09:03:47.228Z,15
2019-02-28T09:04:47.547Z,14.9
2019-02-28T09:05:47.225Z,14.9
2019-02-28T09:06:47.310Z,15
2019-02-28T09:07:50.699Z,15
2019-02-28T09:08:47.265Z,15
2019-02-28T09:09:47.302Z,15
2019-02-28T09:10:47.875Z,15
2019-02-28T09:11:47.242Z,15
2019-02-28T09:12:47.292Z,15
2019-02-28T09:13:47.343Z,15.1
2019-02-28T09:14:47.345Z,15.1
2019-02-28T09:15:47.384Z,15.1
2019-02-28T09:16:47.431Z,15.2
2019-02-28T09:17:47.451Z,15.2
2019-02-28T09:18:47.490Z,15.2
2019-02-28T09:19:47.536Z,15.2
2019-02-28T09:20:47.549Z,15.3
2019-02-28T09:21:49.312Z,15.4
2019-02-28T09:22:47.638Z,15.4
2019-02-28T09:23:47.660Z,15.5
2019-02-28T09:24:47.684Z,15.6
2019-02-28T09:25:47.736Z,15.6
2019-02-28T09:26:47.776Z,15.6
2019-02-28T09:27:47.791Z,15.7
2019-02-28T09:28:48.284Z,15.7
2019-02-28T09:29:47.817Z,15.7
2019-02-28T09:30:47.875Z,15.8
2019-02-28T09:31:47.911Z,15.8
2019-02-28T09:32:48.139Z,15.7
2019-02-28T09:33:47.954Z,15.7
2019-02-28T09:34:48.004Z,15.7
2019-02-28T09:35:47.977Z,15.8
2019-02-28T09:36:47.991Z,15.7
2019-02-28T09:37:48.017Z,15.7
2019-02-28T09:38:56.642Z,15.8
2019-02-28T09:39:48.058Z,15.8
2019-02-28T09:40:48.109Z,15.9
2019-02-28T09:41:48.117Z,16
2019-02-28T09:42:51.028Z,16
2019-02-28T09:43:48.175Z,16
2019-02-28T09:44:48.205Z,15.9
2019-02-28T09:45:48.239Z,15.9
2019-02-28T09:46:50.668Z,15.9
2019-02-28T09:47:48.308Z,15.9
2019-02-28T09:48:48.321Z,15.9
2019-02-28T09:49:48.275Z,15.9
2019-02-28T09:50:48.320Z,16
2019-02-28T09:51:48.343Z,16
2019-02-28T09:52:48.344Z,16
2019-02-28T09:53:50.226Z,16.1
2019-02-28T09:54:48.402Z,16.1
2019-02-28T09:55:48.503Z,16.1
2019-02-28T09:56:48.383Z,16.1
2019-02-28T09:57:53.160Z,16.1
2019-02-28T09:58:49.546Z,16.2
2019-02-28T09:59:48.438Z,16.3
2019-02-28T10:00:50.371Z,16.3
2019-02-28T10:01:48.453Z,16.4
2019-02-28T10:02:48.517Z,16.5
2019-02-28T10:03:48.496Z,16.6
2019-02-28T10:04:48.506Z,16.6
2019-02-28T10:05:48.505Z,16.6
2019-02-28T10:06:51.473Z,16.6
2019-02-28T10:07:48.605Z,16.5
2019-02-28T10:08:48.504Z,16.5
2019-02-28T10:09:49.262Z,16.4
2019-02-28T10:10:48.656Z,16.4
2019-02-28T10:11:48.590Z,16.4
2019-02-28T10:12:48.537Z,16.3
2019-02-28T10:13:49.440Z,16.3
2019-02-28T10:14:48.550Z,16.2
2019-02-28T10:15:48.546Z,16.1
2019-02-28T10:16:49.497Z,16.1
2019-02-28T10:17:48.553Z,16.1
2019-02-28T10:18:48.593Z,16.2
2019-02-28T10:19:49.136Z,16.2
2019-02-28T10:20:44.658Z,16.2
2019-02-28T10:21:44.619Z,16.3
2019-02-28T10:22:47.277Z,16.3
2019-02-28T10:23:44.720Z,16.3
2019-02-28T10:24:44.717Z,16.4
2019-02-28T10:25:44.746Z,16.5
2019-02-28T10:26:44.804Z,16.5
2019-02-28T10:27:44.843Z,16.5
2019-02-28T10:28:44.947Z,16.5
2019-02-28T10:29:44.918Z,16.6
2019-02-28T10:30:47.160Z,16.6
2019-02-28T10:31:44.975Z,16.6
2019-02-28T10:32:44.970Z,16.7
2019-02-28T10:33:45.021Z,16.7
2019-02-28T10:34:45.092Z,16.7
2019-02-28T10:35:45.144Z,16.8
2019-02-28T10:36:47.736Z,16.8
2019-02-28T10:37:45.158Z,16.7
2019-02-28T10:38:45.156Z,16.7
2019-02-28T10:39:45.177Z,16.7
2019-02-28T10:40:45.241Z,16.7
2019-02-28T10:41:45.350Z,16.7
2019-02-28T10:42:45.305Z,16.7
2019-02-28T10:43:49.330Z,16.7
2019-02-28T10:44:45.348Z,16.8
2019-02-28T10:45:46.059Z,16.8
2019-02-28T10:46:45.404Z,16.8
2019-02-28T10:47:45.444Z,16.8
2019-02-28T10:48:50.606Z,16.8
2019-02-28T10:49:45.489Z,16.8
2019-02-28T10:50:45.485Z,16.8
2019-02-28T10:51:49.514Z,16.8
2019-02-28T10:52:45.540Z,16.8
2019-02-28T10:53:45.557Z,16.8
2019-02-28T10:54:48.374Z,16.7
2019-02-28T10:55:45.634Z,16.7
2019-02-28T10:56:45.620Z,16.7
2019-02-28T10:57:45.698Z,16.6
2019-02-28T10:58:47.098Z,16.6
2019-02-28T10:59:46.236Z,16.6
2019-02-28T11:00:45.706Z,16.6
2019-02-28T11:01:45.757Z,16.6
2019-02-28T11:02:45.773Z,16.6
2019-02-28T11:03:45.782Z,16.6
2019-02-28T11:04:45.840Z,16.6
2019-02-28T11:05:45.823Z,16.6
2019-02-28T11:06:46.831Z,16.6
2019-02-28T11:07:46.207Z,16.7
2019-02-28T11:08:47.437Z,16.7
2019-02-28T11:09:45.929Z,16.7
2019-02-28T11:10:45.923Z,16.7
2019-02-28T11:11:46.263Z,16.7
2019-02-28T11:12:45.953Z,16.7
2019-02-28T11:13:45.970Z,16.7
2019-02-28T11:14:46.040Z,16.7
2019-02-28T11:15:48.251Z,16.6
2019-02-28T13:27:49.557Z,16.8
2019-02-28T13:28:48.248Z,16.8
2019-02-28T13:29:48.294Z,16.8
2019-02-28T13:30:49.934Z,16.8
2019-02-28T13:31:48.336Z,16.8
2019-02-28T13:32:48.379Z,16.8
2019-02-28T13:33:52.453Z,16.8
2019-02-28T13:34:48.366Z,16.8
2019-02-28T13:35:48.477Z,16.8
2019-02-28T13:36:48.580Z,16.7
2019-02-28T13:37:48.621Z,16.7
2019-02-28T13:38:49.473Z,16.6
2019-02-28T13:39:48.755Z,16.6
2019-02-28T13:40:48.867Z,16.5
2019-02-28T13:41:48.675Z,16.5
2019-02-28T13:42:48.746Z,16.4
2019-02-28T13:43:48.774Z,16.4
2019-02-28T13:44:48.882Z,16.3
2019-02-28T13:45:50.529Z,16.3
2019-02-28T13:46:49.009Z,16.2
2019-02-28T13:47:49.028Z,16.2
2019-02-28T13:48:50.435Z,16.1
2019-02-28T13:49:49.722Z,16.1
2019-02-28T13:50:49.002Z,16.1
2019-02-28T13:51:49.121Z,16.1
2019-02-28T13:52:52.065Z,16.1
2019-02-28T13:53:49.248Z,16
2019-02-28T13:54:49.086Z,16
2019-02-28T13:55:52.608Z,16
2019-02-28T13:56:49.200Z,15.9
2019-02-28T13:57:49.244Z,15.9
2019-02-28T13:58:49.250Z,15.9
2019-02-28T13:59:49.286Z,15.8
2019-02-28T14:00:49.254Z,15.8
2019-02-28T14:01:52.013Z,15.8
2019-02-28T14:02:49.307Z,15.8
2019-02-28T14:03:49.319Z,15.7
2019-02-28T14:04:49.358Z,15.7
2019-02-28T14:05:49.466Z,15.7
2019-02-28T14:06:52.346Z,15.7
2019-02-28T14:07:49.403Z,15.7
2019-02-28T14:08:49.415Z,15.7
2019-02-28T14:09:49.467Z,15.7
2019-02-28T14:10:49.470Z,15.7
2019-02-28T14:11:51.728Z,15.7
2019-02-28T14:12:52.998Z,15.7
2019-02-28T14:13:49.638Z,15.7
2019-02-28T14:14:49.529Z,15.7
2019-02-28T14:15:52.329Z,15.7
2019-02-28T14:16:49.608Z,15.7
2019-02-28T14:17:49.596Z,15.7
2019-02-28T14:18:49.625Z,15.7
2019-02-28T14:19:52.643Z,15.7
2019-02-28T14:20:49.677Z,15.6
2019-02-28T14:21:49.696Z,15.6
2019-02-28T14:22:49.676Z,15.6
2019-02-28T14:23:52.361Z,15.5
2019-02-28T14:24:49.724Z,15.5
2019-02-28T14:25:49.707Z,15.5
2019-02-28T14:26:50.443Z,15.5
2019-02-28T14:27:49.787Z,15.4
2019-02-28T14:28:49.775Z,15.4
2019-02-28T14:29:49.776Z,15.4
2019-02-28T14:30:49.760Z,15.4
2019-02-28T14:31:49.781Z,15.4
2019-02-28T14:32:49.853Z,15.4
2019-02-28T14:33:51.391Z,15.4
2019-02-28T14:34:49.876Z,15.3
2019-02-28T14:35:49.833Z,15.3
2019-02-28T14:36:49.830Z,15.3
2019-02-28T14:37:51.691Z,15.3
2019-02-28T14:38:49.870Z,15.3
2019-02-28T14:39:49.888Z,15.3
2019-02-28T14:40:52.730Z,15.2
2019-02-28T14:41:49.868Z,15.2
2019-02-28T14:42:49.885Z,15.2
2019-02-28T14:43:52.763Z,15.2
2019-02-28T14:44:49.896Z,15.1
2019-02-28T14:45:49.888Z,15.1
2019-02-28T14:46:53.075Z,15.1
2019-02-28T14:47:56.455Z,15.1
2019-02-28T14:48:49.912Z,15.1
2019-02-28T14:49:49.943Z,15
2019-02-28T14:50:50.482Z,15
2019-02-28T14:51:49.901Z,15
2019-02-28T14:52:49.998Z,15
2019-02-28T14:53:50.168Z,15
2019-02-28T14:54:50.026Z,15
2019-02-28T14:55:50.036Z,15
2019-02-28T14:56:50.144Z,15
2019-02-28T14:57:50.104Z,15
2019-02-28T14:58:50.123Z,15
2019-02-28T14:59:50.178Z,15
2019-02-28T15:00:50.214Z,15
2019-02-28T15:01:52.987Z,15
2019-02-28T15:02:50.779Z,15
2019-02-28T15:03:50.311Z,15
2019-02-28T15:04:50.311Z,15
2019-02-28T15:05:52.315Z,15
2019-02-28T15:06:50.388Z,14.9
2019-02-28T15:07:50.403Z,14.9
2019-02-28T15:08:50.791Z,14.9
2019-02-28T15:09:50.483Z,14.9
2019-02-28T15:10:50.590Z,14.9
2019-02-28T15:11:50.559Z,14.9
2019-02-28T15:12:50.555Z,14.9
2019-02-28T15:13:50.580Z,14.9
2019-02-28T15:14:51.208Z,14.8
2019-02-28T15:15:53.069Z,14.8
2019-02-28T15:16:50.681Z,14.8
2019-02-28T15:17:50.716Z,14.8
2019-02-28T15:18:51.178Z,14.8
2019-02-28T15:19:50.707Z,14.8
2019-02-28T15:20:50.744Z,14.8
2019-02-28T15:21:52.988Z,14.7
2019-02-28T15:22:52.359Z,14.7
2019-02-28T15:23:50.856Z,14.7
2019-02-28T15:24:50.828Z,14.7
2019-02-28T15:25:53.978Z,14.7
2019-02-28T15:26:50.870Z,14.7
2019-02-28T15:27:50.920Z,14.7
2019-02-28T15:28:50.908Z,14.7
2019-02-28T15:29:50.935Z,14.6
2019-02-28T15:30:51.003Z,14.6
2019-02-28T15:31:50.998Z,14.6
2019-02-28T15:32:54.175Z,14.6
2019-02-28T15:33:52.732Z,14.6
2019-02-28T15:34:51.092Z,14.6
2019-02-28T15:35:51.098Z,14.6
2019-02-28T15:36:51.053Z,14.6
2019-02-28T15:37:51.132Z,14.6
2019-02-28T15:38:51.121Z,14.6
2019-02-28T15:39:51.130Z,14.6
2019-02-28T15:40:51.202Z,14.6
2019-02-28T15:41:51.219Z,14.6